createdAt,value
2019-02-10T00:04:10.418Z,9.79
2019-02-10T00:09:17.550Z,9.84
2019-02-10T00:14:24.811Z,10.01
2019-02-10T00:19:32.203Z,10.46
2019-02-10T00:24:39.407Z,11.57
2019-02-10T00:29:46.594Z,8.70
2019-02-10T00:34:54.136Z,9.18
2019-02-10T00:40:01.262Z,9.66
2019-02-10T00:45:08.374Z,10.16
2019-02-10T00:50:16.088Z,9.51
2019-02-10T00:55:23.330Z,9.20
2019-02-10T01:00:30.391Z,10.47
2019-02-10T01:05:37.435Z,9.80
2019-02-10T01:10:44.641Z,8.44
2019-02-10T01:15:51.747Z,8.57
2019-02-10T01:21:00.384Z,11.06
2019-02-10T01:26:07.464Z,7.88
2019-02-10T01:31:14.544Z,11.87
2019-02-10T01:36:21.603Z,9.53
2019-02-10T01:41:28.740Z,10.42
2019-02-10T01:46:35.823Z,10.73
2019-02-10T01:51:42.916Z,9.23
2019-02-10T01:56:49.968Z,9.62
2019-02-10T02:01:57.052Z,11.01
2019-02-10T02:07:04.120Z,8.84
2019-02-10T02:12:11.198Z,9.18
2019-02-10T02:17:18.280Z,10.14
2019-02-10T02:22:25.341Z,9.23
2019-02-10T02:27:32.398Z,8.84
2019-02-10T02:32:39.424Z,9.94
2019-02-10T02:37:46.507Z,9.59
2019-02-10T02:42:53.618Z,10.49
2019-02-10T02:48:00.675Z,10.36
2019-02-10T02:53:07.743Z,9.71
2019-02-10T02:58:14.808Z,9.73
2019-02-10T03:03:21.985Z,9.57
2019-02-10T03:08:29.081Z,10.86
2019-02-10T03:13:36.134Z,10.28
2019-02-10T03:18:43.179Z,11.11
2019-02-10T03:23:50.235Z,9.97
2019-02-10T03:28:57.481Z,10.10
2019-02-10T03:34:04.593Z,10.33
2019-02-10T03:39:11.580Z,11.24
2019-02-10T03:44:18.659Z,11.06
2019-02-10T03:49:25.707Z,9.95
2019-02-10T03:54:32.777Z,13.29
2019-02-10T03:59:39.873Z,10.43
2019-02-10T04:04:46.945Z,10.96
2019-02-10T04:09:54.050Z,12.41
2019-02-10T04:15:01.174Z,9.42
2019-02-10T04:20:08.303Z,10.79
2019-02-10T04:25:15.437Z,10.65
2019-02-10T04:30:22.627Z,11.17
2019-02-10T04:35:29.824Z,9.83
2019-02-10T04:40:37.019Z,10.55
2019-02-10T04:45:44.176Z,8.67
2019-02-10T04:50:51.357Z,8.59
2019-02-10T04:55:59.130Z,7.90
2019-02-10T05:01:06.291Z,7.84
2019-02-10T05:06:13.483Z,7.11
2019-02-10T05:11:20.659Z,7.85
2019-02-10T05:16:27.819Z,6.84
2019-02-10T05:21:35.055Z,6.79
2019-02-10T05:26:42.192Z,6.76
2019-02-10T05:31:49.326Z,6.18
2019-02-10T05:36:56.626Z,6.87
2019-02-10T05:42:03.798Z,4.92
2019-02-10T05:47:10.937Z,5.65
2019-02-10T05:52:18.090Z,4.29
2019-02-10T05:57:25.252Z,4.94
2019-02-10T06:02:32.418Z,3.52
2019-02-10T06:07:39.572Z,3.54
2019-02-10T06:12:46.748Z,3.83
2019-02-10T06:17:53.909Z,4.11
2019-02-10T06:23:01.050Z,2.71
2019-02-10T06:28:08.209Z,3.82
2019-02-10T06:33:15.360Z,3.25
2019-02-10T06:38:22.950Z,2.94
2019-02-10T06:43:29.664Z,2.72
2019-02-10T06:48:36.819Z,2.47
2019-02-10T06:53:43.993Z,1.95
2019-02-10T06:58:51.351Z,1.99
2019-02-10T07:03:59.581Z,1.87
2019-02-10T07:09:06.721Z,1.57
2019-02-10T07:14:13.305Z,2.16
2019-02-10T07:19:20.155Z,1.56
2019-02-10T07:24:27.323Z,1.25
2019-02-10T07:29:34.467Z,1.74
2019-02-10T07:34:48.059Z,1.11
2019-02-10T07:39:48.760Z,1.23
2019-02-10T07:44:55.965Z,0.97
2019-02-10T07:50:03.225Z,1.04
2019-02-10T07:55:10.381Z,1.11
2019-02-10T08:00:17.594Z,0.99
2019-02-10T08:05:24.726Z,1.09
2019-02-10T08:10:31.943Z,0.87
2019-02-10T08:15:39.216Z,0.93
2019-02-10T08:20:46.345Z,0.95
2019-02-10T08:25:53.499Z,0.77
2019-02-10T08:31:00.661Z,0.82
2019-02-10T08:36:08.019Z,1.04
2019-02-10T08:41:15.231Z,0.84
2019-02-10T08:46:22.510Z,0.84
2019-02-10T08:51:29.671Z,1.15
2019-02-10T08:56:36.834Z,0.86
2019-02-10T09:01:44.174Z,0.78
2019-02-10T09:06:51.434Z,0.77
2019-02-10T09:11:58.590Z,0.83
2019-02-10T09:17:05.751Z,0.86
2019-02-10T09:22:13.025Z,0.84
2019-02-10T09:27:20.176Z,0.99
2019-02-10T09:32:27.359Z,0.89
2019-02-10T09:37:34.533Z,0.82
2019-02-10T09:42:41.688Z,1.01
2019-02-10T09:47:49.008Z,1.30
2019-02-10T09:52:56.146Z,0.99
2019-02-10T09:58:03.261Z,1.04
2019-02-10T10:03:10.416Z,1.28
2019-02-10T10:08:17.911Z,0.88
2019-02-10T10:13:25.957Z,0.98
2019-02-10T10:18:33.505Z,0.74
2019-02-10T10:23:40.827Z,0.91
2019-02-10T10:28:48.080Z,1.02
2019-02-10T10:33:55.367Z,0.83
2019-02-10T10:39:02.728Z,0.75
2019-02-10T10:44:19.792Z,1.16
2019-02-10T10:49:27.528Z,0.70
2019-02-10T10:54:33.009Z,0.77
2019-02-10T10:59:30.515Z,0.80
2019-02-10T11:04:43.818Z,1.05
2019-02-10T11:09:41.783Z,1.11
2019-02-10T11:14:48.028Z,1.12
2019-02-10T11:19:55.179Z,0.79
2019-02-10T11:25:02.606Z,0.95
2019-02-10T11:30:09.807Z,0.89
2019-02-10T11:35:16.971Z,1.72
2019-02-10T11:40:24.223Z,1.46
2019-02-10T11:45:31.964Z,1.41
2019-02-10T11:50:39.420Z,1.13
2019-02-10T11:55:46.644Z,1.09
2019-02-10T12:00:54.001Z,1.12
2019-02-10T12:06:01.559Z,1.39
2019-02-10T12:11:09.038Z,0.89
2019-02-10T12:16:16.334Z,1.01
2019-02-10T12:21:23.514Z,0.86
2019-02-10T12:26:31.405Z,1.96
2019-02-10T12:31:38.699Z,1.10
2019-02-10T12:36:45.918Z,3.39
2019-02-10T12:41:53.241Z,1.33
2019-02-10T12:47:00.941Z,1.03
2019-02-10T12:52:08.253Z,1.88
2019-02-10T12:57:15.423Z,2.06
2019-02-10T13:02:23.758Z,4.57
2019-02-10T13:07:31.001Z,1.31
2019-02-10T13:12:38.149Z,0.92
2019-02-10T13:17:45.457Z,2.12
2019-02-10T13:22:52.779Z,2.62
2019-02-10T13:28:00.233Z,2.64
2019-02-10T13:33:07.456Z,2.74
2019-02-10T13:38:14.587Z,1.40
2019-02-10T13:43:21.863Z,1.98
2019-02-10T13:48:29.971Z,3.75
2019-02-10T13:53:37.266Z,2.75
2019-02-10T13:58:44.599Z,2.39
2019-02-10T14:03:51.866Z,1.94
2019-02-10T14:08:59.328Z,1.67
2019-02-10T14:14:06.502Z,1.36
2019-02-10T14:19:13.646Z,1.62
2019-02-10T14:24:20.819Z,1.20
2019-02-10T14:29:28.101Z,1.15
2019-02-10T14:34:37.141Z,1.59
2019-02-10T14:39:46.158Z,0.96
2019-02-10T14:44:53.959Z,1.28
2019-02-10T14:50:01.578Z,1.32
2019-02-10T14:55:08.844Z,1.50
2019-02-10T15:00:16.317Z,1.07
2019-02-10T15:05:23.522Z,1.16
2019-02-10T15:10:30.705Z,1.03
2019-02-10T15:15:37.871Z,0.78
2019-02-10T15:20:45.095Z,0.77
2019-02-10T15:25:53.267Z,1.45
2019-02-10T15:31:00.724Z,0.87
2019-02-10T15:36:12.042Z,0.76
2019-02-10T15:41:09.615Z,0.71
2019-02-10T15:46:16.922Z,1.04
2019-02-10T15:51:35.642Z,1.03
2019-02-10T15:56:31.159Z,1.32
2019-02-10T16:01:38.679Z,1.08
2019-02-10T16:06:46.045Z,0.97
2019-02-10T16:11:53.498Z,1.00
2019-02-10T16:17:02.626Z,0.96
2019-02-10T16:22:10.235Z,3.83
2019-02-10T16:27:18.493Z,3.64
2019-02-10T16:32:25.739Z,2.81
2019-02-10T16:37:32.906Z,3.56
2019-02-10T16:42:40.630Z,2.85
2019-02-10T16:47:47.776Z,2.20
2019-02-10T16:52:55.541Z,1.41
2019-02-10T16:58:02.770Z,1.31
2019-02-10T17:03:11.251Z,3.22
2019-02-10T17:08:18.430Z,1.29
2019-02-10T17:13:27.085Z,1.44
2019-02-10T17:18:34.307Z,1.68
2019-02-10T17:23:41.860Z,1.73
2019-02-10T17:28:49.038Z,1.64
2019-02-10T17:33:56.722Z,1.59
2019-02-10T17:39:04.524Z,1.55
2019-02-10T17:44:11.679Z,1.66
2019-02-10T17:49:18.969Z,1.58
2019-02-10T17:54:26.250Z,1.49
2019-02-10T17:59:33.497Z,1.86
2019-02-10T18:04:40.802Z,1.79
2019-02-10T18:09:47.934Z,1.79
2019-02-10T18:14:55.287Z,2.00
2019-02-10T18:20:02.418Z,2.87
2019-02-10T18:25:10.317Z,1.79
2019-02-10T18:30:19.100Z,1.53
2019-02-10T18:35:24.544Z,1.82
2019-02-10T18:40:31.907Z,1.52
2019-02-10T18:45:39.474Z,2.06
2019-02-10T18:50:47.830Z,1.64
2019-02-10T18:55:59.966Z,1.81
2019-02-10T19:00:57.875Z,1.82
2019-02-10T19:06:05.237Z,1.91
2019-02-10T19:11:12.390Z,2.30
2019-02-10T19:16:19.770Z,2.29
2019-02-10T19:21:27.009Z,2.46
2019-02-10T19:26:34.227Z,2.34
2019-02-10T19:31:41.480Z,2.29
2019-02-10T19:36:48.631Z,2.43
2019-02-10T19:41:55.938Z,2.09
2019-02-10T19:47:03.086Z,2.37
2019-02-10T19:52:10.278Z,2.05
2019-02-10T19:57:17.467Z,2.86
2019-02-10T20:02:24.748Z,2.28
2019-02-10T20:07:33.533Z,2.98
2019-02-10T20:12:38.650Z,3.20
2019-02-10T20:17:45.796Z,2.96
2019-02-10T20:22:53.216Z,2.77
2019-02-10T20:28:00.474Z,3.17
2019-02-10T20:33:07.706Z,2.80
2019-02-10T20:38:14.964Z,2.36
2019-02-10T20:43:22.452Z,2.47
2019-02-10T20:48:29.743Z,2.08
2019-02-10T20:53:37.434Z,1.70
2019-02-10T20:58:44.592Z,2.15
2019-02-10T21:03:51.804Z,1.55
2019-02-10T21:08:59.094Z,2.03
2019-02-10T21:14:06.349Z,2.63
2019-02-10T21:19:13.499Z,2.33
2019-02-10T21:24:23.255Z,2.40
2019-02-10T21:29:30.499Z,2.57
2019-02-10T21:34:37.674Z,1.84
2019-02-10T21:39:44.842Z,1.85
2019-02-10T21:44:52.083Z,1.61
2019-02-10T21:49:59.268Z,1.34
2019-02-10T21:55:06.527Z,1.29
2019-02-10T22:00:13.730Z,1.20
2019-02-10T22:05:20.874Z,0.87
2019-02-10T22:10:28.021Z,0.88
2019-02-10T22:15:35.206Z,0.84
2019-02-10T22:20:42.365Z,0.81
2019-02-10T22:25:49.491Z,0.70
2019-02-10T22:30:56.619Z,0.67
2019-02-10T22:36:03.764Z,0.64
2019-02-10T22:41:10.911Z,0.70
2019-02-10T22:46:18.158Z,0.69
2019-02-10T22:51:25.329Z,0.56
2019-02-10T22:56:32.465Z,0.66
2019-02-10T23:01:39.639Z,0.66
2019-02-10T23:06:46.815Z,0.67
2019-02-10T23:11:54.258Z,0.82
2019-02-10T23:17:01.410Z,0.86
2019-02-10T23:22:08.585Z,0.87
2019-02-10T23:27:15.724Z,1.02
2019-02-10T23:32:22.882Z,0.90
2019-02-10T23:37:30.003Z,0.90
2019-02-10T23:42:37.115Z,1.12
2019-02-10T23:47:44.231Z,0.95
2019-02-10T23:52:51.370Z,0.88
2019-02-10T23:57:58.489Z,0.85
